Time;durP1;ratioP1;P1;durP2;ratioP2;P2;SDS_P1;SDS_P2;PMS_P1;PMS_P2;Temp;Humidity;BMP_temperature;BMP_pressure;BME280_temperature;BME280_humidity;BME280_pressure;Samples;Min_cycle;Max_cycle;Signal;HPM_P1;HPM_P2
2020/12/10 00:02:39;;;;;;;5.82;1.55;;;8.40;61.90;;;;;;5024406;28;80393;-72
2020/12/10 00:05:12;;;;;;;4.95;1.27;;;8.40;62.00;;;;;;5027697;28;81112;-71
2020/12/10 00:07:54;;;;;;;3.10;1.60;;;8.40;62.20;;;;;;5029810;28;82519;-72
2020/12/10 00:11:08;;;;;;;4.32;1.38;;;8.40;62.40;;;;;;5088054;27;81591;-72
2020/12/10 00:13:50;;;;;;;6.75;1.23;;;8.40;62.70;;;;;;5073512;27;80931;-73
2020/12/10 00:16:57;;;;;;;5.55;1.30;;;8.40;62.90;;;;;;5068960;27;80660;-74
2020/12/10 00:19:59;;;;;;;7.00;1.40;;;8.40;63.40;;;;;;5007863;28;80559;-71
2020/12/10 00:22:46;;;;;;;3.92;0.98;;;8.30;63.90;;;;;;4983225;28;83006;-70
2020/12/10 00:25:43;;;;;;;7.55;1.50;;;8.20;64.80;;;;;;4978587;28;82765;-68
2020/12/10 00:28:11;;;;;;;4.45;2.08;;;8.20;65.30;;;;;;4986414;28;81154;-69
2020/12/10 00:31:31;;;;;;;3.75;0.80;;;8.10;65.50;;;;;;5029773;28;80240;-68
2020/12/10 00:34:28;;;;;;;2.10;0.90;;;8.10;65.70;;;;;;4971864;28;80855;-72
2020/12/10 00:37:15;;;;;;;6.65;1.63;;;8.00;66.10;;;;;;5011029;28;81110;-68
2020/12/10 00:40:02;;;;;;;3.47;1.48;;;7.90;66.30;;;;;;5047867;28;79846;-73
2020/12/10 00:42:45;;;;;;;3.47;1.40;;;7.90;66.40;;;;;;5049336;27;79953;-70
2020/12/10 00:45:53;;;;;;;3.53;1.20;;;7.90;66.70;;;;;;4999439;28;81879;-69
2020/12/10 00:49:20;;;;;;;2.70;0.90;;;7.90;66.70;;;;;;4997877;28;79898;-71
2020/12/10 00:51:53;;;;;;;3.42;1.02;;;7.90;66.90;;;;;;5049843;28;80945;-70
2020/12/10 00:54:31;;;;;;;4.97;1.85;;;7.90;67.10;;;;;;5028464;28;81820;-68
2020/12/10 00:57:11;;;;;;;7.68;1.63;;;7.90;67.20;;;;;;5048543;28;81193;-69
2020/12/10 00:59:50;;;;;;;7.23;1.53;;;7.90;67.40;;;;;;5049196;28;80295;-70
2020/12/10 01:02:53;;;;;;;4.85;1.23;;;7.90;67.40;;;;;;4997043;28;80248;-69
2020/12/10 01:05:41;;;;;;;3.27;1.10;;;7.90;67.50;;;;;;5047591;28;80829;-73
2020/12/10 01:08:40;;;;;;;3.28;1.10;;;7.90;67.70;;;;;;5045887;28;80056;-72
2020/12/10 01:11:24;;;;;;;5.75;1.70;;;8.00;68.20;;;;;;5047155;28;80014;-68
2020/12/10 01:14:06;;;;;;;4.63;1.70;;;8.00;69.10;;;;;;4980978;28;81208;-69
2020/12/10 01:16:43;;;;;;;5.72;1.63;;;7.90;69.90;;;;;;5031199;28;80353;-70
2020/12/10 01:19:14;;;;;;;3.38;1.33;;;7.90;70.20;;;;;;5031096;28;80092;-72
2020/12/10 01:22:10;;;;;;;3.95;1.08;;;8.10;70.20;;;;;;5024659;28;80379;-69
2020/12/10 01:25:09;;;;;;;3.42;1.50;;;8.10;71.00;;;;;;5031378;28;84265;-70
2020/12/10 01:28:22;;;;;;;1.92;1.00;;;8.10;70.70;;;;;;5032631;28;80631;-70
2020/12/10 01:31:57;;;;;;;3.92;1.63;;;8.20;71.00;;;;;;4947607;28;81157;-77
2020/12/10 01:34:18;;;;;;;5.70;1.98;;;8.20;71.20;;;;;;4946569;28;81653;-78
2020/12/10 01:37:28;;;;;;;4.22;1.40;;;8.20;72.00;;;;;;5019920;28;83199;-77
2020/12/10 01:40:29;;;;;;;5.00;1.48;;;8.20;72.10;;;;;;4994685;28;79956;-79
2020/12/10 01:43:09;;;;;;;3.10;1.52;;;8.20;72.60;;;;;;4945955;28;80757;-77
2020/12/10 01:46:05;;;;;;;3.85;1.67;;;8.20;72.90;;;;;;4936920;28;82955;-80
2020/12/10 01:48:49;;;;;;;5.03;1.30;;;8.20;73.00;;;;;;4909241;28;80083;-78
2020/12/10 01:51:41;;;;;;;3.08;1.10;;;8.20;73.30;;;;;;4895662;28;80884;-83
2020/12/10 01:54:32;;;;;;;4.32;2.00;;;8.30;73.60;;;;;;4998258;28;81413;-79
2020/12/10 02:00:09;;;;;;;5.57;1.73;;;8.40;73.90;;;;;;5018419;28;80564;-71
2020/12/10 02:02:58;;;;;;;3.28;1.75;;;8.30;74.30;;;;;;5049134;28;80452;-77
2020/12/10 02:06:13;;;;;;;6.88;1.60;;;8.40;74.60;;;;;;5041883;28;81173;-78
2020/12/10 02:09:18;;;;;;;;;;;;;;;;;;;;;
2020/12/10 02:12:03;;;;;;;3.25;1.55;;;8.40;75.60;;;;;;5046934;28;109026;-75
2020/12/10 02:14:40;;;;;;;4.78;1.70;;;8.40;75.50;;;;;;4997820;28;80248;-80
2020/12/10 02:17:16;;;;;;;3.65;1.85;;;8.40;75.80;;;;;;4999032;28;80809;-80
2020/12/10 02:20:05;;;;;;;4.05;2.22;;;8.40;76.10;;;;;;4996700;28;81026;-79
2020/12/10 02:23:01;;;;;;;4.97;1.85;;;8.40;76.40;;;;;;5005815;28;83036;-81
2020/12/10 02:25:31;;;;;;;4.50;1.52;;;8.40;76.70;;;;;;5008246;28;80237;-72
2020/12/10 02:28:44;;;;;;;5.43;1.73;;;8.50;76.60;;;;;;5017254;28;80937;-80
2020/12/10 02:31:45;;;;;;;4.18;1.45;;;8.60;77.00;;;;;;5009317;28;80633;-83
2020/12/10 02:34:48;;;;;;;3.97;2.08;;;8.50;77.70;;;;;;5008211;28;80093;-85
2020/12/10 02:37:32;;;;;;;4.90;1.77;;;8.50;78.80;;;;;;5006120;28;80046;-81
2020/12/10 02:40:34;;;;;;;6.07;2.00;;;8.40;78.70;;;;;;5009759;28;81073;-84
2020/12/10 02:43:26;;;;;;;3.47;1.42;;;8.40;79.10;;;;;;5006525;28;80264;-70
2020/12/10 02:46:38;;;;;;;2.90;1.50;;;8.40;79.70;;;;;;4970968;28;80884;-71
2020/12/10 02:49:35;;;;;;;5.53;1.73;;;8.30;80.10;;;;;;4922352;28;83786;-70
2020/12/10 02:52:57;;;;;;;4.45;1.80;;;8.30;80.40;;;;;;4997799;28;79863;-69
2020/12/10 02:55:14;;;;;;;5.70;1.70;;;8.30;80.80;;;;;;4992876;28;80202;-73
2020/12/10 02:58:11;;;;;;;3.05;1.75;;;8.40;81.10;;;;;;5003620;28;80593;-71
2020/12/10 03:04:07;;;;;;;3.38;1.48;;;8.40;81.80;;;;;;4964272;28;81478;-74
2020/12/10 03:06:41;;;;;;;3.17;1.25;;;8.30;82.20;;;;;;4959830;28;80543;-72
2020/12/10 03:09:18;;;;;;;1.90;1.00;;;8.20;82.10;;;;;;5000673;28;81356;-77
2020/12/10 03:12:09;;;;;;;2.75;1.33;;;8.30;82.20;;;;;;5007691;28;79943;-72
2020/12/10 03:15:03;;;;;;;2.30;0.85;;;8.40;82.40;;;;;;5003280;28;79820;-81
2020/12/10 03:18:02;;;;;;;4.47;1.00;;;8.40;82.40;;;;;;5024084;28;80311;-75
2020/12/10 03:20:51;;;;;;;2.72;1.30;;;8.30;82.60;;;;;;5009886;28;83220;-79
2020/12/10 03:23:29;;;;;;;5.07;1.73;;;8.30;82.80;;;;;;5023965;28;80874;-73
2020/12/10 03:26:03;;;;;;;3.72;1.10;;;8.30;82.90;;;;;;4999179;28;79853;-74
2020/12/10 03:29:02;;;;;;;3.53;0.98;;;8.30;82.80;;;;;;5011208;28;80677;-76
2020/12/10 03:31:42;;;;;;;1.92;0.77;;;8.40;83.30;;;;;;4941406;28;81318;-66
2020/12/10 03:34:42;;;;;;;2.75;0.90;;;8.30;83.20;;;;;;4912713;28;81351;-67
2020/12/10 03:37:24;;;;;;;1.75;0.80;;;8.40;83.00;;;;;;4888694;28;80912;-70
2020/12/10 03:39:55;;;;;;;1.88;0.88;;;8.30;83.20;;;;;;4947173;28;79997;-87
2020/12/10 03:42:48;;;;;;;1.67;0.70;;;8.40;83.50;;;;;;4945572;28;80750;-78
2020/12/10 03:46:06;;;;;;;2.78;1.40;;;8.40;83.40;;;;;;4920756;28;80503;-74
2020/12/10 03:48:37;;;;;;;1.73;0.60;;;8.40;83.20;;;;;;4958119;28;80923;-67
2020/12/10 03:51:20;;;;;;;2.13;0.93;;;8.40;83.30;;;;;;5004297;28;80372;-75
2020/12/10 03:54:00;;;;;;;1.73;0.77;;;8.40;83.30;;;;;;5026439;28;81118;-76
2020/12/10 03:57:01;;;;;;;1.58;0.80;;;8.40;83.10;;;;;;5022456;28;80086;-74
2020/12/10 03:59:54;;;;;;;2.22;0.77;;;8.50;82.90;;;;;;5021550;28;80851;-72
2020/12/10 04:02:33;;;;;;;1.95;0.90;;;8.50;82.90;;;;;;4947880;28;80331;-75
2020/12/10 04:05:29;;;;;;;1.20;0.73;;;8.40;83.10;;;;;;4947775;28;81055;-75
2020/12/10 04:08:38;;;;;;;1.83;0.88;;;8.40;82.90;;;;;;5015417;28;80253;-73
2020/12/10 04:11:15;;;;;;;1.48;0.55;;;8.40;83.00;;;;;;5008246;28;81094;-67
2020/12/10 04:14:00;;;;;;;1.42;0.70;;;8.40;83.10;;;;;;5010965;28;79906;-69
2020/12/10 04:16:42;;;;;;;1.23;0.63;;;8.40;83.20;;;;;;5028255;28;79747;-70
2020/12/10 04:19:36;;;;;;;2.03;0.95;;;8.40;83.10;;;;;;5030787;28;80681;-70
2020/12/10 04:22:43;;;;;;;2.40;0.80;;;8.40;83.00;;;;;;5030249;28;79917;-69
2020/12/10 04:25:48;;;;;;;1.63;0.73;;;8.50;83.10;;;;;;5029920;28;80817;-65
2020/12/10 04:32:04;;;;;;;1.98;0.88;;;8.50;83.30;;;;;;5019325;28;80680;-71
2020/12/10 04:35:13;;;;;;;1.52;0.90;;;8.50;83.10;;;;;;5022668;28;80008;-68
2020/12/10 04:37:54;;;;;;;3.72;0.80;;;8.60;83.10;;;;;;5029639;28;82038;-65
2020/12/10 04:41:09;;;;;;;1.50;0.70;;;8.60;83.10;;;;;;5029827;28;80351;-66
2020/12/10 04:43:41;;;;;;;1.40;0.55;;;8.60;83.10;;;;;;5027309;28;80497;-66
2020/12/10 04:46:31;;;;;;;1.90;0.70;;;8.60;83.10;;;;;;5028711;28;81454;-64
2020/12/10 04:52:38;;;;;;;1.20;0.60;;;8.70;83.00;;;;;;4987877;28;80615;-73
2020/12/10 04:55:40;;;;;;;1.67;0.60;;;8.60;83.10;;;;;;4967538;28;80478;-70
2020/12/10 04:58:32;;;;;;;1.60;0.60;;;8.70;83.00;;;;;;4967780;28;81433;-72
2020/12/10 05:01:14;;;;;;;3.58;0.70;;;8.70;83.00;;;;;;4966507;28;80432;-66
2020/12/10 05:03:56;;;;;;;1.50;0.52;;;8.70;82.90;;;;;;4985819;28;80013;-70
2020/12/10 05:06:53;;;;;;;1.20;0.50;;;8.70;83.20;;;;;;4987329;28;80101;-67
2020/12/10 05:10:02;;;;;;;1.33;0.40;;;8.80;83.10;;;;;;4973794;28;81676;-68
2020/12/10 05:15:54;;;;;;;1.40;0.40;;;8.80;83.10;;;;;;4876819;28;80424;-64
2020/12/10 05:18:36;;;;;;;0.93;0.35;;;8.80;83.10;;;;;;4948000;28;80085;-67
2020/12/10 05:21:16;;;;;;;0.60;0.22;;;8.90;83.10;;;;;;4949367;28;81131;-76
2020/12/10 05:24:39;;;;;;;0.70;0.30;;;8.90;83.20;;;;;;5003520;28;80710;-72
2020/12/10 05:27:26;;;;;;;0.73;0.22;;;8.90;83.00;;;;;;4893962;28;81183;-77
2020/12/10 05:30:16;;;;;;;1.35;0.35;;;8.90;83.00;;;;;;4950492;28;83385;-73
2020/12/10 05:36:38;;;;;;;1.80;0.68;;;9.00;83.20;;;;;;5008759;28;79859;-75
2020/12/10 05:39:48;;;;;;;;;;;;;;;;;;;;;
2020/12/10 05:42:17;;;;;;;1.08;0.35;;;8.90;83.20;;;;;;5031918;28;80051;-67
2020/12/10 05:44:56;;;;;;;1.40;0.30;;;9.00;83.00;;;;;;5033952;28;80685;-75
2020/12/10 05:48:10;;;;;;;1.20;0.45;;;9.00;83.10;;;;;;5049587;28;80508;-76
2020/12/10 05:50:58;;;;;;;1.30;0.60;;;9.10;83.20;;;;;;5047403;28;80868;-78
2020/12/10 05:53:53;;;;;;;0.93;0.38;;;9.10;83.10;;;;;;5048924;27;80014;-85
2020/12/10 05:56:43;;;;;;;1.25;0.45;;;9.10;83.20;;;;;;5049090;27;80795;-76
2020/12/10 05:59:21;;;;;;;0.73;0.55;;;9.10;83.40;;;;;;5047597;28;80546;-82
2020/12/10 06:02:13;;;;;;;0.95;0.32;;;9.00;83.60;;;;;;5014340;28;80583;-80
2020/12/10 06:05:04;;;;;;;1.02;0.30;;;9.00;83.40;;;;;;5048802;28;80857;-69
2020/12/10 06:07:59;;;;;;;1.20;0.55;;;9.10;83.50;;;;;;4966225;28;79911;-79
2020/12/10 06:11:07;;;;;;;1.15;0.45;;;9.10;83.80;;;;;;4965279;28;80862;-73
2020/12/10 06:14:09;;;;;;;1.50;0.47;;;9.10;84.00;;;;;;5040571;27;83182;-80
2020/12/10 06:16:40;;;;;;;1.20;0.65;;;9.00;84.00;;;;;;4955795;28;81026;-75
2020/12/10 06:23:05;;;;;;;0.80;0.60;;;9.10;84.10;;;;;;4927560;28;80147;-67
2020/12/10 06:25:59;;;;;;;1.30;0.47;;;9.10;84.40;;;;;;4928223;28;80820;-74
2020/12/10 06:28:37;;;;;;;0.95;0.50;;;9.10;84.20;;;;;;5030796;27;82322;-74
2020/12/10 06:31:23;;;;;;;3.42;0.80;;;9.10;84.20;;;;;;5068732;27;81044;-79
2020/12/10 06:37:32;;;;;;;1.17;0.50;;;9.20;84.20;;;;;;5029665;27;80307;-70
2020/12/10 06:40:07;;;;;;;1.40;0.65;;;9.20;84.30;;;;;;5067126;27;80311;-77
2020/12/10 06:43:01;;;;;;;1.73;0.43;;;9.20;84.20;;;;;;5015275;27;80119;-76
2020/12/10 06:46:01;;;;;;;1.45;0.60;;;9.20;84.30;;;;;;5045322;27;80267;-68
2020/12/10 06:49:18;;;;;;;1.35;0.70;;;9.20;84.50;;;;;;5063471;27;80674;-77
2020/12/10 06:52:22;;;;;;;1.75;0.88;;;9.20;84.50;;;;;;5069324;27;79821;-70
2020/12/10 06:55:55;;;;;;;1.75;1.02;;;9.20;84.70;;;;;;5052191;27;80863;-72
2020/12/10 07:02:21;;;;;;;3.35;1.05;;;9.20;84.70;;;;;;4962954;28;80292;-73
2020/12/10 07:04:58;;;;;;;1.98;1.10;;;9.30;84.80;;;;;;4964867;28;80239;-76
2020/12/10 07:07:38;;;;;;;1.75;0.82;;;9.20;84.90;;;;;;4910611;28;81107;-64
2020/12/10 07:11:02;;;;;;;1.75;0.95;;;9.30;84.80;;;;;;4953436;28;80257;-62
2020/12/10 07:13:52;;;;;;;1.20;0.68;;;9.40;84.60;;;;;;4922827;28;81822;-64
2020/12/10 07:16:32;;;;;;;2.20;1.10;;;9.40;84.70;;;;;;4991317;28;80118;-65
2020/12/10 07:19:27;;;;;;;1.83;1.10;;;9.50;84.50;;;;;;5044231;28;83196;-65
2020/12/10 07:22:27;;;;;;;1.45;0.63;;;9.50;84.50;;;;;;5035255;27;80505;-62
2020/12/10 07:25:28;;;;;;;1.40;0.70;;;9.60;84.20;;;;;;5035214;28;81238;-63
2020/12/10 07:28:08;;;;;;;3.10;1.58;;;9.60;84.30;;;;;;4998250;28;80668;-61
2020/12/10 07:31:20;;;;;;;2.45;1.00;;;9.60;84.20;;;;;;5046613;28;80648;-60
2020/12/10 07:34:41;;;;;;;2.20;0.90;;;9.60;84.10;;;;;;5044777;28;80779;-60
2020/12/10 07:37:31;;;;;;;2.17;0.98;;;9.70;84.30;;;;;;5044044;28;80596;-65
2020/12/10 07:40:49;;;;;;;2.25;1.05;;;9.70;84.10;;;;;;5035776;28;80282;-61
2020/12/10 07:43:26;;;;;;;6.15;1.27;;;9.80;84.10;;;;;;5037890;28;81100;-62
2020/12/10 07:46:06;;;;;;;2.28;1.13;;;9.80;84.00;;;;;;5008388;28;80853;-62
2020/12/10 07:49:26;;;;;;;2.72;1.35;;;9.80;83.90;;;;;;5036643;28;80461;-60
2020/12/10 07:52:11;;;;;;;1.60;0.80;;;9.90;83.80;;;;;;5005005;28;82091;-60
2020/12/10 07:55:28;;;;;;;1.60;0.77;;;9.90;83.70;;;;;;5017407;28;80953;-61
2020/12/10 07:58:33;;;;;;;2.65;1.00;;;9.90;83.50;;;;;;4905593;28;82281;-60
2020/12/10 08:01:04;;;;;;;1.00;0.60;;;10.00;83.50;;;;;;4985030;28;81479;-61
2020/12/10 08:07:18;;;;;;;1.50;0.70;;;10.00;83.50;;;;;;4964536;28;80168;-60
2020/12/10 08:09:51;;;;;;;1.13;0.50;;;10.00;83.40;;;;;;4960388;28;80615;-61
2020/12/10 08:13:00;;;;;;;2.40;0.70;;;10.10;83.20;;;;;;4987156;28;81002;-60
2020/12/10 08:15:35;;;;;;;1.25;0.55;;;10.10;83.10;;;;;;4998588;28;80436;-60
2020/12/10 08:18:21;;;;;;;0.90;0.30;;;10.20;83.00;;;;;;4987580;28;82949;-60
2020/12/10 08:21:06;;;;;;;0.60;0.30;;;10.20;83.00;;;;;;5004239;28;80402;-60
2020/12/10 08:24:07;;;;;;;1.83;0.57;;;10.20;83.00;;;;;;5004411;28;80667;-60
2020/12/10 08:27:04;;;;;;;0.80;0.35;;;10.30;82.90;;;;;;4923502;28;80877;-60
2020/12/10 08:30:07;;;;;;;1.52;0.32;;;10.30;82.90;;;;;;4902013;28;82797;-61
2020/12/10 08:36:27;;;;;;;1.30;0.40;;;10.30;82.60;;;;;;4862034;29;81639;-61
2020/12/10 08:39:00;;;;;;;1.20;0.50;;;10.40;82.50;;;;;;4807995;29;81064;-60
2020/12/10 08:41:55;;;;;;;2.45;0.90;;;10.40;82.50;;;;;;4819012;29;81704;-62
2020/12/10 08:44:48;;;;;;;1.98;0.85;;;10.40;82.40;;;;;;4855086;29;80570;-60
2020/12/10 08:47:37;;;;;;;2.03;0.80;;;10.50;82.40;;;;;;4908264;28;80557;-60
2020/12/10 08:50:31;;;;;;;;;;;10.50;82.30;;;;;;4958796;28;80544;-60
2020/12/10 08:53:20;;;;;;;1.45;0.70;;;10.50;82.30;;;;;;4986086;28;75979;-60
2020/12/10 08:56:23;;;;;;;3.38;0.60;;;10.60;82.20;;;;;;4986390;28;79981;-58
2020/12/10 08:59:04;;;;;;;1.80;0.50;;;10.60;82.20;;;;;;4942414;28;80813;-59
2020/12/10 09:01:36;;;;;;;2.35;0.70;;;10.60;82.10;;;;;;4957433;28;80419;-60
2020/12/10 09:04:18;;;;;;;2.77;0.57;;;10.70;82.10;;;;;;4965725;28;80753;-60
2020/12/10 09:07:19;;;;;;;2.03;0.60;;;10.80;81.90;;;;;;4945124;28;80146;-60
2020/12/10 09:10:10;;;;;;;0.88;0.40;;;10.90;81.50;;;;;;4944285;28;80658;-60
2020/12/10 09:13:05;;;;;;;0.95;0.30;;;11.10;81.10;;;;;;4947545;28;80052;-61
2020/12/10 09:15:42;;;;;;;1.38;0.30;;;11.10;80.90;;;;;;4944739;28;80927;-62
2020/12/10 09:18:19;;;;;;;2.15;0.50;;;11.10;80.90;;;;;;5024463;28;80111;-60
2020/12/10 09:20:56;;;;;;;2.30;0.20;;;11.10;81.00;;;;;;5009691;28;80615;-60
2020/12/10 09:23:29;;;;;;;0.80;0.30;;;11.10;81.00;;;;;;4962327;28;82300;-59
2020/12/10 09:29:16;;;;;;;2.78;0.30;;;11.20;80.90;;;;;;5022665;27;80025;-60
2020/12/10 09:32:34;;;;;;;0.75;0.25;;;11.40;80.20;;;;;;5033798;28;80610;-59
2020/12/10 09:35:29;;;;;;;1.83;0.40;;;11.60;79.40;;;;;;5001871;28;80924;-61
2020/12/10 09:38:03;;;;;;;0.70;0.20;;;11.70;79.10;;;;;;4967172;28;80734;-61
2020/12/10 09:40:43;;;;;;;0.55;0.20;;;11.90;78.70;;;;;;5000012;28;83582;-60
2020/12/10 09:43:14;;;;;;;0.93;0.22;;;12.10;77.90;;;;;;4972492;28;80067;-60
2020/12/10 09:49:07;;;;;;;1.58;0.32;;;12.10;77.70;;;;;;4975284;28;80387;-61
2020/12/10 09:51:46;;;;;;;1.13;0.20;;;12.00;78.20;;;;;;5032246;28;81759;-60
2020/12/10 09:57:44;;;;;;;1.35;0.38;;;12.10;78.10;;;;;;5023838;28;79977;-60
2020/12/10 10:01:03;;;;;;;0.60;0.30;;;12.00;78.30;;;;;;5008592;28;82634;-61
2020/12/10 10:03:44;;;;;;;1.73;0.38;;;12.00;78.50;;;;;;5021293;28;80180;-60
2020/12/10 10:06:56;;;;;;;1.42;0.20;;;12.00;78.70;;;;;;5027084;28;80584;-61
2020/12/10 10:09:37;;;;;;;1.73;0.50;;;12.10;78.60;;;;;;5011745;28;80268;-62
2020/12/10 10:12:30;;;;;;;0.52;0.20;;;12.10;78.30;;;;;;5027805;28;79872;-62
2020/12/10 10:15:27;;;;;;;0.82;0.40;;;12.30;78.10;;;;;;5041311;28;80153;-61
2020/12/10 10:18:19;;;;;;;1.05;0.32;;;12.40;77.70;;;;;;5047972;28;80427;-61
2020/12/10 10:20:57;;;;;;;3.20;1.15;;;12.50;77.20;;;;;;5029649;28;80743;-61
2020/12/10 10:23:40;;;;;;;4.25;0.75;;;12.60;77.10;;;;;;5029473;28;82762;-61
2020/12/10 10:26:36;;;;;;;2.90;0.47;;;12.70;76.80;;;;;;5047223;28;80327;-60
2020/12/10 10:29:32;;;;;;;2.45;0.50;;;12.80;76.60;;;;;;5008824;28;80464;-60
2020/12/10 10:32:40;;;;;;;4.53;2.75;;;12.90;76.30;;;;;;5029096;27;82198;-60
2020/12/10 10:35:33;;;;;;;4.25;0.60;;;12.90;76.10;;;;;;5020345;28;80842;-60
2020/12/10 10:38:23;;;;;;;0.80;0.30;;;12.90;76.10;;;;;;5026679;28;82171;-61
2020/12/10 10:41:16;;;;;;;0.82;0.30;;;12.90;75.80;;;;;;4917395;28;82715;-60
2020/12/10 10:43:58;;;;;;;0.97;0.40;;;12.90;75.90;;;;;;4923349;28;80227;-60
2020/12/10 10:46:46;;;;;;;1.08;0.30;;;13.20;75.40;;;;;;4926937;28;82131;-60
2020/12/10 10:49:27;;;;;;;1.48;0.40;;;13.30;74.80;;;;;;4910246;28;80013;-60
2020/12/10 10:52:18;;;;;;;0.75;0.30;;;13.40;74.30;;;;;;4945837;28;80812;-60
2020/12/10 10:54:58;;;;;;;7.10;0.40;;;13.60;73.50;;;;;;5000988;28;80737;-60
2020/12/10 10:57:37;;;;;;;3.70;0.73;;;13.80;72.90;;;;;;4980139;28;81657;-60
2020/12/10 11:00:47;;;;;;;1.63;0.50;;;13.90;72.60;;;;;;5004169;28;80869;-60
2020/12/10 11:03:39;;;;;;;2.10;0.47;;;14.20;71.60;;;;;;4981795;28;82819;-61
2020/12/10 11:06:16;;;;;;;3.53;0.70;;;14.80;69.80;;;;;;4993185;28;81150;-61
2020/12/10 11:08:46;;;;;;;2.05;0.20;;;15.10;68.30;;;;;;4992791;28;80385;-60
2020/12/10 11:14:30;;;;;;;2.75;0.32;;;15.50;66.40;;;;;;4995255;28;81743;-61
2020/12/10 11:17:24;;;;;;;3.05;0.45;;;16.30;63.90;;;;;;5028428;28;80630;-61
2020/12/10 11:19:58;;;;;;;1.58;0.55;;;17.40;60.20;;;;;;5046830;27;80716;-61
2020/12/10 11:22:53;;;;;;;1.00;0.40;;;18.80;55.90;;;;;;4997255;28;82110;-61
2020/12/10 11:25:52;;;;;;;2.97;0.50;;;20.20;52.00;;;;;;5032486;27;80673;-61
2020/12/10 11:28:28;;;;;;;1.20;0.60;;;20.90;49.10;;;;;;5036832;27;80706;-62
2020/12/10 11:31:00;;;;;;;4.18;0.90;;;21.20;48.40;;;;;;5012525;28;83438;-61
2020/12/10 11:33:49;;;;;;;2.73;0.77;;;21.40;48.20;;;;;;5046530;27;80855;-60
2020/12/10 11:36:24;;;;;;;2.60;0.38;;;21.40;47.70;;;;;;5026438;27;82127;-62
2020/12/10 11:39:24;;;;;;;8.18;0.82;;;21.00;48.20;;;;;;5044246;27;80297;-61
2020/12/10 11:42:36;;;;;;;2.58;0.40;;;20.50;48.30;;;;;;5023330;28;83437;-61
2020/12/10 11:45:23;;;;;;;2.47;0.70;;;20.10;49.90;;;;;;4965061;28;82385;-61
2020/12/10 11:48:04;;;;;;;2.60;0.43;;;20.00;49.20;;;;;;4975480;28;81194;-61
2020/12/10 11:50:47;;;;;;;1.55;0.52;;;20.00;49.80;;;;;;5035957;27;80335;-61
2020/12/10 11:53:32;;;;;;;1.52;0.30;;;20.20;49.10;;;;;;5028392;28;81630;-61
2020/12/10 11:59:20;;;;;;;1.45;0.63;;;18.80;51.90;;;;;;4948027;28;80361;-61
2020/12/10 12:05:21;;;;;;;2.72;0.60;;;17.90;54.70;;;;;;4921972;28;80931;-62
2020/12/10 12:07:55;;;;;;;1.85;0.50;;;18.10;54.70;;;;;;4909024;28;80281;-62
2020/12/10 12:13:32;;;;;;;2.58;0.50;;;18.50;53.50;;;;;;4922352;28;80124;-61
2020/12/10 12:16:00;;;;;;;1.50;0.60;;;18.30;55.20;;;;;;4957081;28;82143;-61
2020/12/10 12:18:36;;;;;;;3.40;0.60;;;18.30;55.80;;;;;;5023707;28;80337;-61
2020/12/10 12:21:26;;;;;;;1.23;0.45;;;18.50;55.90;;;;;;5026689;28;79951;-61
2020/12/10 12:24:22;;;;;;;5.03;1.20;;;19.10;54.80;;;;;;4971404;28;80968;-62
2020/12/10 12:26:55;;;;;;;1.75;0.35;;;19.40;54.10;;;;;;4997899;28;82674;-62
2020/12/10 12:29:44;;;;;;;2.45;0.98;;;19.20;54.30;;;;;;4951607;28;80332;-60
2020/12/10 12:32:33;;;;;;;9.20;4.18;;;19.10;54.40;;;;;;4968145;28;80791;-62
2020/12/10 12:35:05;;;;;;;3.22;1.05;;;19.10;54.60;;;;;;5023486;28;82608;-61
2020/12/10 12:38:21;;;;;;;2.72;0.65;;;18.90;55.30;;;;;;5027762;28;79904;-61
2020/12/10 12:40:52;;;;;;;2.20;0.45;;;18.50;56.00;;;;;;5028937;28;80284;-63
2020/12/10 12:43:41;;;;;;;2.08;0.60;;;18.30;56.90;;;;;;5011319;28;82573;-62
2020/12/10 12:46:15;;;;;;;2.67;0.55;;;18.00;57.80;;;;;;5023217;28;80893;-62
2020/12/10 12:49:16;;;;;;;1.63;0.60;;;18.20;57.50;;;;;;5005626;28;81180;-62
2020/12/10 12:52:15;;;;;;;3.70;0.77;;;18.30;57.50;;;;;;4946726;28;80784;-62
2020/12/10 12:54:53;;;;;;;2.03;0.80;;;18.10;58.00;;;;;;4948245;28;80440;-62
2020/12/10 12:57:51;;;;;;;4.93;0.55;;;18.00;57.60;;;;;;4946875;28;79968;-62
2020/12/10 13:00:53;;;;;;;2.50;0.80;;;18.20;56.10;;;;;;4945949;28;80110;-62
2020/12/10 13:03:29;;;;;;;3.38;0.90;;;18.20;54.50;;;;;;4920518;28;80092;-62
2020/12/10 13:06:10;;;;;;;1.08;0.32;;;18.20;54.70;;;;;;4926247;28;80769;-63
2020/12/10 13:08:38;;;;;;;3.20;0.63;;;18.20;53.20;;;;;;4932797;28;80843;-62
2020/12/10 13:11:40;;;;;;;2.95;0.30;;;18.10;53.10;;;;;;4947443;28;81600;-63
2020/12/10 13:14:15;;;;;;;3.00;0.22;;;18.00;52.60;;;;;;4944154;28;80900;-62
2020/12/10 13:17:22;;;;;;;1.45;0.20;;;17.90;51.90;;;;;;4922956;28;82304;-62
2020/12/10 13:20:22;;;;;;;2.50;0.30;;;17.70;50.70;;;;;;4867077;28;80244;-62
2020/12/10 13:23:06;;;;;;;1.30;0.20;;;17.70;51.30;;;;;;4864645;28;81790;-61
2020/12/10 13:25:46;;;;;;;0.75;0.20;;;17.70;50.00;;;;;;4867768;28;82149;-62
2020/12/10 13:28:17;;;;;;;0.50;0.20;;;17.50;50.70;;;;;;4889693;28;83036;-62
2020/12/10 13:31:10;;;;;;;0.88;0.20;;;17.40;51.00;;;;;;4934004;28;82498;-63
2020/12/10 13:37:21;;;;;;;0.73;0.20;;;17.40;51.40;;;;;;4938182;28;81703;-62
2020/12/10 13:39:54;;;;;;;1.67;0.20;;;17.50;50.80;;;;;;4941466;28;81698;-62
2020/12/10 13:42:56;;;;;;;0.98;0.28;;;17.50;50.70;;;;;;4944772;28;81437;-63
2020/12/10 13:45:44;;;;;;;0.65;0.20;;;17.70;50.50;;;;;;4923009;28;81383;-62
2020/12/10 13:48:14;;;;;;;3.63;0.30;;;17.80;49.70;;;;;;4971807;28;80711;-62
2020/12/10 13:50:55;;;;;;;1.45;0.40;;;17.80;50.10;;;;;;5012273;28;82178;-62
2020/12/10 13:53:45;;;;;;;1.23;0.40;;;17.90;50.20;;;;;;4992804;28;82811;-62
2020/12/10 13:56:15;;;;;;;1.83;0.30;;;18.00;50.00;;;;;;4960698;28;81719;-62
2020/12/10 13:58:50;;;;;;;2.97;0.30;;;17.90;50.50;;;;;;5013254;28;80940;-62
2020/12/10 14:01:19;;;;;;;1.08;0.10;;;17.90;50.60;;;;;;5012932;28;82672;-62
2020/12/10 14:04:08;;;;;;;1.48;0.43;;;17.80;50.90;;;;;;4994219;28;83161;-61
2020/12/10 14:07:16;;;;;;;2.00;0.30;;;17.80;51.20;;;;;;5011736;28;81609;-61
2020/12/10 14:10:09;;;;;;;1.38;0.20;;;17.60;51.30;;;;;;4970097;28;81000;-62
2020/12/10 14:13:04;;;;;;;0.38;0.13;;;17.50;51.80;;;;;;5025346;28;81220;-62
2020/12/10 14:15:54;;;;;;;4.00;0.30;;;17.50;52.10;;;;;;4997333;28;83730;-62
2020/12/10 14:18:41;;;;;;;0.32;0.10;;;17.40;52.30;;;;;;5016086;28;83606;-62
2020/12/10 14:21:41;;;;;;;2.10;0.30;;;17.40;52.70;;;;;;4987789;28;80917;-63
2020/12/10 14:24:32;;;;;;;0.82;0.20;;;17.40;52.90;;;;;;5025400;28;80975;-62
2020/12/10 14:27:30;;;;;;;6.57;0.30;;;17.30;53.60;;;;;;5017685;28;80539;-62
2020/12/10 14:33:21;;;;;;;1.45;0.10;;;17.20;54.40;;;;;;4965708;28;80185;-62
2020/12/10 14:36:05;;;;;;;0.93;0.20;;;17.00;54.90;;;;;;4965987;28;80718;-68
2020/12/10 14:38:57;;;;;;;1.92;0.20;;;16.90;55.50;;;;;;4949167;28;80877;-68
2020/12/10 14:41:53;;;;;;;2.15;0.20;;;16.70;55.90;;;;;;4938398;28;80815;-65
2020/12/10 14:44:33;;;;;;;1.40;0.40;;;16.70;56.10;;;;;;4887969;28;80554;-67
2020/12/10 14:47:22;;;;;;;1.95;0.40;;;16.60;56.20;;;;;;4889097;28;81226;-66
2020/12/10 14:50:02;;;;;;;2.90;0.63;;;16.50;56.40;;;;;;4885437;28;81314;-69
2020/12/10 14:52:30;;;;;;;2.63;0.17;;;16.40;56.60;;;;;;4888365;28;80923;-68
2020/12/10 14:55:02;;;;;;;0.75;0.22;;;16.30;57.00;;;;;;4909737;28;82084;-69
2020/12/10 14:57:42;;;;;;;4.70;1.25;;;16.20;57.40;;;;;;4966315;28;79690;-67
2020/12/10 15:00:27;;;;;;;1.85;0.32;;;16.20;57.40;;;;;;4944010;28;81243;-68
2020/12/10 15:03:09;;;;;;;1.48;0.20;;;16.20;57.30;;;;;;4943502;28;81829;-67
2020/12/10 15:05:49;;;;;;;3.65;0.63;;;16.20;57.30;;;;;;4939327;28;80461;-66
2020/12/10 15:08:25;;;;;;;1.13;0.20;;;16.10;57.60;;;;;;4949060;28;80571;-69
2020/12/10 15:11:23;;;;;;;3.70;0.22;;;16.10;57.70;;;;;;5006898;28;80793;-67
2020/12/10 15:14:19;;;;;;;0.93;0.20;;;16.10;57.50;;;;;;5002100;28;80772;-70
2020/12/10 15:17:17;;;;;;;2.55;0.35;;;16.10;57.40;;;;;;5009463;28;82479;-67
2020/12/10 15:20:25;;;;;;;1.83;0.30;;;16.00;57.80;;;;;;5025014;28;80576;-67
2020/12/10 15:23:02;;;;;;;2.58;0.30;;;15.90;57.90;;;;;;4998775;28;80968;-68
2020/12/10 15:25:58;;;;;;;2.08;0.38;;;15.90;58.00;;;;;;5026443;28;80570;-68
2020/12/10 15:29:04;;;;;;;0.30;0.20;;;15.90;58.20;;;;;;4963569;28;80155;-68
2020/12/10 15:31:59;;;;;;;1.77;0.45;;;15.80;58.50;;;;;;5026141;28;80454;-68
2020/12/10 15:35:06;;;;;;;2.05;0.40;;;15.70;58.80;;;;;;5009076;28;80567;-69
2020/12/10 15:37:36;;;;;;;2.20;0.25;;;15.60;58.80;;;;;;5004758;28;81222;-69
2020/12/10 15:40:39;;;;;;;1.08;0.38;;;15.60;59.00;;;;;;4991193;28;80837;-67
2020/12/10 15:43:27;;;;;;;1.15;0.25;;;15.60;58.90;;;;;;4944639;28;81754;-67
2020/12/10 15:49:19;;;;;;;1.00;0.20;;;15.40;59.00;;;;;;4944538;28;81083;-67
2020/12/10 15:52:02;;;;;;;1.75;0.50;;;15.50;59.20;;;;;;4912193;28;80422;-67
2020/12/10 15:54:44;;;;;;;1.13;0.10;;;15.50;59.30;;;;;;4972060;28;82500;-67
2020/12/10 15:57:54;;;;;;;1.13;0.20;;;15.40;59.30;;;;;;4964332;28;82505;-66
2020/12/10 16:00:33;;;;;;;2.35;0.40;;;15.40;59.50;;;;;;4964773;28;80427;-68
2020/12/10 16:06:30;;;;;;;1.00;0.30;;;15.30;59.90;;;;;;4957308;28;80778;-65